Portada
METAR-TAF:

METAR-TAF

Aeroports :

Gilze en Rijen, Països Baixos

latitud: 51-34N, longitud: 004-56E, altitud: 15 m

Observació

L'informe es va fer fa 31 minuts, a les 18:55 UTC
Vent 5 kt del Nord/Nord-Est, variant entre Nord/Nord-Oest i Est
Temperatura 21°C
Humitat 30%
Pressió 1020 hPa
Visibilitat 10 km o més
Cel cobert a una alçada de 27000 ft

METAR: EHGR 011855Z AUTO 03005KT 340V090 9999 OVC270 21/03 Q1020 BLU

Hora: 21:26 (19:26 UTC)


TAF: manca

Observacions i pronòstics meteorològics de més de 4000 aeroports (METAR i TAF).

Les estacions disponibles són els punts grocs i vermells al mapa.

Posi el ratolí al punt desitjat per veure el nom de l'estació.

Feu clic per veure les observacions i els pronòstics meteorològics.

Per canviar el mapa: feu clic els botons verds amb una creu de color negre per apropar; al botó verd amb un guió per allunyar la imatge; o en les fletxes verdes per a mapes adjacents.


METAR-TAF: